createdAt,value
2019-01-02T00:02:00.742Z,98731.23
2019-01-02T00:04:50.434Z,98731.97
2019-01-02T00:07:41.837Z,98732.34
2019-01-02T00:10:24.163Z,98731.65
2019-01-02T00:13:13.859Z,98763.97
2019-01-02T00:16:03.635Z,98751.90
2019-01-02T00:18:54.923Z,98771.70
2019-01-02T00:21:44.495Z,98780.66
2019-01-02T00:24:35.836Z,98803.40
2019-01-02T00:27:25.512Z,98813.30
2019-01-02T00:30:16.808Z,98789.78
2019-01-02T00:33:08.115Z,98831.28
2019-01-02T00:35:57.677Z,98849.48
2019-01-02T00:38:47.254Z,98870.80
2019-01-02T00:41:37.731Z,98867.34
2019-01-02T00:44:29.357Z,98880.87
2019-01-02T00:47:18.992Z,98838.20
2019-01-02T00:50:31.427Z,98866.87
2019-01-02T00:53:40.643Z,98868.17
2019-01-02T00:56:30.256Z,98868.00
2019-01-02T00:59:40.468Z,98880.45
2019-01-02T01:02:48.190Z,98894.19
2019-01-02T01:05:37.766Z,98885.50
2019-01-02T01:08:27.355Z,98864.03
2019-01-02T01:11:10.976Z,98884.50
2019-01-02T01:14:22.338Z,98905.61
2019-01-02T01:17:11.898Z,98857.91
2019-01-02T01:20:01.499Z,98892.50
2019-01-02T01:22:52.899Z,98895.48
2019-01-02T01:25:44.213Z,98916.14
2019-01-02T01:28:34.053Z,98884.73
2019-01-02T01:31:43.170Z,98850.65
2019-01-02T01:34:32.794Z,98885.18
2019-01-02T01:37:41.332Z,98871.22
2019-01-02T01:40:30.921Z,98873.45
2019-01-02T01:54:40.725Z,98856.56
2019-01-02T01:57:30.308Z,98878.95
2019-01-02T02:03:09.396Z,98879.29
2019-01-02T02:05:59.801Z,98891.72
2019-01-02T02:08:51.147Z,98902.06
2019-01-02T02:15:31.616Z,98901.63
2019-01-02T02:21:14.679Z,98871.30
2019-01-02T02:27:00.296Z,98921.30
2019-01-02T02:38:27.630Z,98929.91
2019-01-02T02:56:30.880Z,98934.05
2019-01-02T02:59:21.513Z,98930.21
2019-01-02T03:13:48.770Z,98940.05
2019-01-02T03:22:17.787Z,98938.47
2019-01-02T03:43:41.403Z,98917.02
2019-01-02T03:46:30.995Z,98922.12
2019-01-02T03:59:41.519Z,98909.70
2019-01-02T04:02:32.082Z,98895.78
2019-01-02T04:09:45.223Z,98849.71
2019-01-02T04:12:27.778Z,98907.75
2019-01-02T04:25:37.167Z,98912.75
2019-01-02T04:31:17.039Z,98901.50
2019-01-02T04:36:56.888Z,98885.77
2019-01-02T04:42:43.206Z,98910.52
2019-01-02T04:57:45.681Z,98862.83
2019-01-02T05:04:55.488Z,98916.09
2019-01-02T05:08:22.167Z,98920.83
2019-01-02T05:14:29.754Z,98872.42
2019-01-02T05:17:36.938Z,98868.14
2019-01-02T05:20:44.625Z,98911.86
2019-01-02T05:23:34.244Z,98918.10
2019-01-02T05:26:23.867Z,98908.88
2019-01-02T05:29:13.690Z,98894.45
2019-01-02T05:32:03.611Z,98903.20
2019-01-02T05:34:53.263Z,98883.34
2019-01-02T05:37:42.932Z,98927.52
2019-01-02T05:40:31.835Z,98916.63
2019-01-02T05:50:10.748Z,98946.13
2019-01-02T05:53:00.316Z,98938.81
2019-01-02T05:55:49.888Z,98924.81
2019-01-02T05:58:39.557Z,98972.13
2019-01-02T06:01:29.144Z,98962.39
2019-01-02T06:04:19.301Z,98988.63
2019-01-02T06:07:20.922Z,98963.64
2019-01-02T06:09:53.229Z,99005.14
2019-01-02T06:12:42.906Z,98995.31
2019-01-02T06:15:32.479Z,98990.77
2019-01-02T06:18:22.070Z,98998.36
2019-01-02T06:22:07.155Z,99002.80
2019-01-02T06:24:56.735Z,99005.22
2019-01-02T06:28:04.083Z,99003.80
2019-01-02T06:30:53.727Z,99007.53
2019-01-02T06:34:02.192Z,99001.22
2019-01-02T06:36:51.753Z,99009.98
2019-01-02T06:39:41.444Z,99007.30
2019-01-02T06:42:31.052Z,99019.16
2019-01-02T06:45:20.721Z,99024.16
2019-01-02T06:48:10.424Z,98972.17
2019-01-02T06:51:00.023Z,99030.00
2019-01-02T06:57:05.393Z,99031.83
2019-01-02T06:59:55.290Z,99036.23
2019-01-02T07:02:44.934Z,99013.73
2019-01-02T07:05:34.535Z,99039.55
2019-01-02T07:08:24.526Z,99016.97
2019-01-02T07:11:06.943Z,99064.58
2019-01-02T07:14:15.415Z,99056.86
2019-01-02T07:17:04.973Z,99063.67
2019-01-02T07:19:54.544Z,99050.88
2019-01-02T07:22:44.220Z,99076.92
2019-01-02T07:25:33.801Z,99086.31
2019-01-02T07:28:23.370Z,99078.73
2019-01-02T07:31:12.971Z,99075.55
2019-01-02T07:34:45.662Z,99099.20
2019-01-02T07:41:21.596Z,99067.16
2019-01-02T07:44:46.489Z,99107.55
2019-01-02T07:48:17.305Z,99114.41
2019-01-02T07:51:07.834Z,99122.30
2019-01-02T07:54:35.586Z,99125.43
2019-01-02T07:58:20.558Z,99134.32
2019-01-02T08:05:38.689Z,99135.33
2019-01-02T08:12:44.603Z,99127.59
2019-01-02T08:16:30.004Z,99129.31
2019-01-02T08:19:53.238Z,99136.56
2019-01-02T08:23:39.940Z,99137.16
2019-01-02T08:34:42.510Z,99150.73
2019-01-02T08:38:06.272Z,99146.52
2019-01-02T08:41:34.104Z,99142.77
2019-01-02T08:45:19.162Z,99152.81
2019-01-02T08:49:07.603Z,99106.22
2019-01-02T08:52:52.726Z,99141.24
2019-01-02T08:56:20.446Z,99138.32
2019-01-02T08:59:51.426Z,99145.71
2019-01-02T09:03:19.160Z,99135.54
2019-01-02T09:07:01.653Z,99109.45
2019-01-02T09:10:05.195Z,99136.10
2019-01-02T09:13:54.830Z,99146.64
2019-01-02T09:17:25.718Z,99143.76
2019-01-02T09:20:53.463Z,99142.33
2019-01-02T09:24:21.481Z,99141.48
2019-01-02T09:28:08.114Z,99140.59
2019-01-02T09:31:53.153Z,99137.73
2019-01-02T09:35:09.972Z,99168.88
2019-01-02T09:41:51.202Z,99163.63
2019-01-02T09:45:19.063Z,99119.57
2019-01-02T09:48:46.968Z,99156.33
2019-01-02T09:55:04.281Z,99147.52
2019-01-02T09:58:32.130Z,99149.36
2019-01-02T10:02:00.028Z,99166.25
2019-01-02T10:05:27.778Z,99156.33
2019-01-02T10:12:48.700Z,99183.36
2019-01-02T10:16:16.432Z,99171.74
2019-01-02T10:19:47.333Z,99175.92
2019-01-02T10:23:15.069Z,99182.24
2019-01-02T10:30:32.084Z,99164.09
2019-01-02T10:33:58.615Z,99165.78
2019-01-02T10:37:23.462Z,99157.05
2019-01-02T10:40:54.534Z,99135.34
2019-01-02T10:44:22.316Z,99160.94
2019-01-02T10:47:29.735Z,99157.48
2019-01-02T10:50:46.567Z,99162.98
2019-01-02T10:54:23.447Z,99173.88
2019-01-02T10:57:51.192Z,99158.47
2019-01-02T11:10:54.600Z,99146.16
2019-01-02T11:13:40.637Z,99139.34
2019-01-02T11:17:05.161Z,99144.12
2019-01-02T11:20:36.003Z,99116.64
2019-01-02T11:24:03.752Z,99111.44
2019-01-02T11:27:31.509Z,99122.92
2019-01-02T11:30:59.294Z,99132.33
2019-01-02T11:38:46.109Z,99132.42
2019-01-02T11:42:13.860Z,99131.97
2019-01-02T11:45:22.578Z,99136.94
2019-01-02T11:48:12.223Z,99120.59
2019-01-02T11:51:19.764Z,99122.39
2019-01-02T11:54:27.133Z,99117.10
2019-01-02T12:12:56.328Z,99025.42
2019-01-02T12:31:34.993Z,99061.59
2019-01-02T12:34:24.561Z,99071.25
2019-01-02T12:37:51.295Z,99037.06
2019-01-02T12:40:40.899Z,99078.25
2019-01-02T12:46:20.053Z,99091.43
2019-01-02T12:56:44.808Z,99076.98
2019-01-02T12:59:34.381Z,99096.31
2019-01-02T13:03:15.126Z,99080.40
2019-01-02T13:06:39.877Z,99064.48
2019-01-02T13:09:53.446Z,99038.17
2019-01-02T13:13:21.205Z,99028.28
2019-01-02T13:20:30.548Z,99025.53
2019-01-02T13:24:08.713Z,98995.40
2019-01-02T13:27:29.616Z,99030.55
2019-01-02T13:34:00.034Z,99033.10
2019-01-02T13:41:18.446Z,99047.61
2019-01-02T13:44:46.198Z,99028.38
2019-01-02T13:48:13.956Z,98998.84
2019-01-02T13:51:29.641Z,98881.11
2019-01-02T13:54:19.233Z,98860.31
2019-01-02T13:57:09.199Z,98851.27
2019-01-02T13:59:58.810Z,98863.78
2019-01-02T14:02:48.553Z,98865.00
2019-01-02T14:05:58.976Z,98872.34
2019-01-02T14:08:48.643Z,98880.99
2019-01-02T14:11:30.940Z,98855.64
2019-01-02T14:14:20.547Z,98822.89
2019-01-02T14:17:10.253Z,98833.86
2019-01-02T14:20:00.171Z,98805.73
2019-01-02T14:23:07.342Z,98838.80
2019-01-02T14:25:56.932Z,98833.69
2019-01-02T14:28:46.528Z,98818.62
2019-01-02T14:31:38.724Z,98843.24
2019-01-02T14:34:27.477Z,98838.20
2019-01-02T14:37:17.350Z,98835.42
2019-01-02T14:41:02.403Z,98842.87
2019-01-02T14:43:52.106Z,98827.65
2019-01-02T14:46:41.693Z,98862.62
2019-01-02T14:49:31.287Z,98867.97
2019-01-02T14:52:20.862Z,98888.87
2019-01-02T14:55:10.447Z,98895.33
2019-01-02T14:58:00.031Z,98900.33
2019-01-02T15:00:49.680Z,98863.38
2019-01-02T15:03:39.256Z,98869.25
2019-01-02T15:06:26.828Z,98917.67
2019-01-02T15:09:16.484Z,98887.27
2019-01-02T15:11:58.801Z,98940.45
2019-01-02T15:14:48.443Z,98938.81
2019-01-02T15:17:38.030Z,98928.53
2019-01-02T15:20:27.972Z,98949.73
2019-01-02T15:23:17.620Z,98961.89
2019-01-02T15:26:07.581Z,98961.78
2019-01-02T15:31:46.774Z,98951.27
2019-01-02T15:34:36.347Z,98975.81
2019-01-02T15:37:26.028Z,98981.45
2019-01-02T15:40:15.605Z,98988.50
2019-01-02T15:43:05.514Z,98987.37
2019-01-02T15:45:55.107Z,98990.86
2019-01-02T15:49:02.426Z,99003.53
2019-01-02T15:52:47.522Z,98998.81
2019-01-02T15:55:37.365Z,98950.72
2019-01-02T15:58:26.953Z,98993.75
2019-01-02T16:01:16.575Z,99009.20
2019-01-02T16:04:06.176Z,99002.27
2019-01-02T16:09:50.114Z,99031.80
2019-01-02T16:12:45.975Z,98986.88
2019-01-02T16:15:31.100Z,99046.63
2019-01-02T16:18:20.690Z,99059.09
2019-01-02T16:21:11.109Z,99054.23
2019-01-02T16:23:59.526Z,99058.60
2019-01-02T16:30:09.224Z,99058.46
2019-01-02T16:32:58.869Z,99066.52
2019-01-02T16:35:48.597Z,99083.41
2019-01-02T16:42:26.987Z,99037.80
2019-01-02T16:45:16.848Z,99083.73
2019-01-02T16:48:06.618Z,99084.22
2019-01-02T16:51:31.734Z,99083.38
2019-01-02T16:54:21.310Z,99090.08
2019-01-02T16:57:10.925Z,99101.06
2019-01-02T17:00:00.485Z,99094.42
2019-01-02T17:02:50.057Z,99104.56
2019-01-02T17:05:39.648Z,99106.06
2019-01-02T17:09:04.814Z,99117.78
2019-01-02T17:11:47.642Z,99119.25
2019-01-02T17:14:37.209Z,99093.37
2019-01-02T17:18:03.653Z,99119.34
2019-01-02T17:20:53.298Z,99122.05
2019-01-02T17:24:19.675Z,99122.53
2019-01-02T17:27:09.260Z,99126.38
2019-01-02T17:29:59.461Z,99121.44
2019-01-02T17:33:44.696Z,99141.72
2019-01-02T17:36:34.267Z,99141.64
2019-01-02T17:47:09.351Z,99154.34
2019-01-02T17:54:18.186Z,99162.77
2019-01-02T17:57:44.666Z,99151.13
2019-01-02T18:00:34.238Z,99145.73
2019-01-02T18:03:23.849Z,99168.13
2019-01-02T18:06:13.657Z,99161.97
2019-01-02T18:18:57.103Z,99169.75
2019-01-02T18:25:07.512Z,99163.33
2019-01-02T18:31:26.446Z,99168.16
2019-01-02T18:45:40.341Z,99184.89
2019-01-02T19:00:32.465Z,99193.17
2019-01-02T19:09:10.856Z,99199.09
2019-01-02T19:27:11.144Z,99257.83
2019-01-02T19:45:19.699Z,99258.80
2019-01-02T19:48:47.459Z,99250.97
2019-01-02T20:03:28.130Z,99272.34
2019-01-02T20:06:17.718Z,99234.95
2019-01-02T20:09:08.753Z,99276.30
2019-01-02T20:18:16.009Z,99279.12
2019-01-02T20:21:23.482Z,99265.32
2019-01-02T20:30:48.868Z,99289.80
2019-01-02T20:33:38.480Z,99288.12
2019-01-02T20:39:41.699Z,99290.75
2019-01-02T20:42:31.344Z,99293.59
2019-01-02T20:51:31.019Z,99301.59
2019-01-02T20:54:57.504Z,99306.92
2019-01-02T21:01:34.535Z,99310.27
2019-01-02T21:05:17.878Z,99312.84
2019-01-02T21:08:07.468Z,99305.55
2019-01-02T21:14:08.177Z,99312.14
2019-01-02T21:16:54.250Z,99308.05
2019-01-02T21:20:02.830Z,99310.04
2019-01-02T21:22:52.714Z,99309.94
2019-01-02T21:25:42.361Z,99309.00
2019-01-02T21:31:40.102Z,99306.13
2019-01-02T21:34:29.708Z,99310.17
2019-01-02T21:37:19.284Z,99262.73
2019-01-02T21:40:09.630Z,99305.01
2019-01-02T21:42:59.242Z,99309.80
2019-01-02T21:45:48.827Z,99270.03
2019-01-02T21:48:57.401Z,99285.91
2019-01-02T21:51:47.714Z,99308.27
2019-01-02T21:58:39.855Z,99271.84
2019-01-02T22:01:29.448Z,99331.47
2019-01-02T22:04:19.184Z,99335.78
2019-01-02T22:07:09.213Z,99286.69
2019-01-02T22:10:16.940Z,99343.80
2019-01-02T22:12:59.352Z,99349.47
2019-01-02T22:15:48.968Z,99343.91
2019-01-02T22:18:38.996Z,99321.12
2019-01-02T22:21:28.733Z,99355.00
2019-01-02T22:24:18.734Z,99354.74
2019-01-02T22:27:27.599Z,99356.16
2019-01-02T22:30:17.479Z,99318.55
2019-01-02T22:36:02.812Z,99380.45
2019-01-02T22:38:52.768Z,99390.59
2019-01-02T22:41:42.435Z,99402.27
2019-01-02T22:45:26.533Z,99380.89
2019-01-02T22:48:16.249Z,99418.27
2019-01-02T22:51:06.047Z,99420.17
2019-01-02T22:54:14.765Z,99403.73
2019-01-02T22:57:04.512Z,99430.17
2019-01-02T22:59:54.245Z,99414.47
2019-01-02T23:03:21.867Z,99428.38
2019-01-02T23:06:30.699Z,99432.50
2019-01-02T23:09:39.285Z,99382.25
2019-01-02T23:12:40.067Z,99440.78
2019-01-02T23:15:27.964Z,99442.84
2019-01-02T23:18:37.369Z,99432.50
2019-01-02T23:21:45.931Z,99446.11
2019-01-02T23:25:12.966Z,99446.19
2019-01-02T23:32:10.238Z,99464.80
2019-01-02T23:39:00.143Z,99464.27
2019-01-02T23:42:09.266Z,99480.48
2019-01-02T23:52:11.950Z,99498.87
2019-01-02T23:55:21.081Z,99507.66
2019-01-02T23:59:06.277Z,99467.97
